Terminal Aerodrome Forecast
Issued by NWS Dallas/Fort Worth, TX

Home | Current Version | Previous Version | Text Only | Print | Product List | Glossary On
Versions: 1 2 3 4 5 6 7 8 9 10 11 12 13 14 15 16 17 18 19 20 21 22 23 24 25 26
342
FTUS44 KFWD 250520
TAFACT
TAF
KACT 250520Z 2506/2606 09006KT P6SM OVC250
      TEMPO 2506/2509 -TSRA BKN080CB
     FM251600 35012KT P6SM BKN025
     FM252000 34017KT P6SM -SHRA BKN022
     FM252200 34016KT P6SM -TSRA BKN018CB
     FM260200 33008KT P6SM SKC=

USA.gov is the U.S. government's official web portal to all federal, state and local government web resources and services.